createdAt,value
2023-01-20T00:01:24.032Z,3.90
2023-01-20T00:03:53.116Z,3.90
2023-01-20T00:06:20.367Z,3.90
2023-01-20T00:08:51.436Z,3.80
2023-01-20T00:11:18.415Z,3.80
2023-01-20T00:13:45.404Z,3.80
2023-01-20T00:16:12.605Z,3.80
2023-01-20T00:18:40.593Z,3.80
2023-01-20T00:21:10.398Z,3.80
2023-01-20T00:23:37.700Z,3.70
2023-01-20T00:26:10.159Z,3.70
2023-01-20T00:28:37.110Z,3.70
2023-01-20T00:31:11.994Z,3.70
2023-01-20T00:33:39.259Z,3.70
2023-01-20T00:36:06.542Z,3.70
2023-01-20T00:38:33.782Z,3.70
2023-01-20T00:41:00.832Z,3.70
2023-01-20T00:43:27.910Z,3.70
2023-01-20T00:45:54.858Z,3.70
2023-01-20T00:48:21.798Z,3.70
2023-01-20T00:50:48.773Z,3.70
2023-01-20T00:53:15.758Z,3.80
2023-01-20T00:55:42.725Z,3.80
2023-01-20T00:58:09.993Z,3.80
2023-01-20T01:00:37.105Z,3.70
2023-01-20T01:03:05.711Z,3.70
2023-01-20T01:05:33.206Z,3.70
2023-01-20T01:08:00.275Z,3.60
2023-01-20T01:10:27.445Z,3.60
2023-01-20T01:12:54.401Z,3.60
2023-01-20T01:15:21.343Z,3.60
2023-01-20T01:17:48.373Z,3.70
2023-01-20T01:20:15.391Z,3.70
2023-01-20T01:22:42.262Z,3.70
2023-01-20T01:25:09.411Z,3.70
2023-01-20T01:27:36.552Z,3.80
2023-01-20T01:30:04.059Z,3.80
2023-01-20T01:32:31.150Z,3.70
2023-01-20T01:34:58.154Z,3.70
2023-01-20T01:37:25.174Z,3.70
2023-01-20T01:39:52.190Z,3.60
2023-01-20T01:42:22.838Z,3.60
2023-01-20T01:45:11.798Z,3.50
2023-01-20T01:47:46.809Z,3.50
2023-01-20T01:50:23.250Z,3.50
2023-01-20T01:52:53.473Z,3.50
2023-01-20T01:55:24.115Z,3.50
2023-01-20T01:57:52.685Z,3.40
2023-01-20T02:00:20.352Z,3.40
2023-01-20T02:02:47.493Z,3.40
2023-01-20T02:05:16.605Z,3.40
2023-01-20T02:07:46.667Z,3.40
2023-01-20T02:10:14.671Z,3.30
2023-01-20T02:12:44.163Z,3.30
2023-01-20T02:15:11.348Z,3.30
2023-01-20T02:17:49.139Z,3.30
2023-01-20T02:20:34.843Z,3.30
2023-01-20T02:24:04.537Z,3.30
2023-01-20T02:26:49.925Z,3.30
2023-01-20T02:29:25.689Z,3.30
2023-01-20T02:32:19.584Z,3.30
2023-01-20T02:35:12.189Z,3.30
2023-01-20T02:38:08.694Z,3.40
2023-01-20T02:41:07.049Z,3.40
2023-01-20T02:43:52.062Z,3.40
2023-01-20T02:46:32.177Z,3.40
2023-01-20T02:49:17.412Z,3.40
2023-01-20T02:52:16.089Z,3.40
2023-01-20T02:54:54.846Z,3.40
2023-01-20T02:57:43.725Z,3.40
2023-01-20T03:00:40.204Z,3.30
2023-01-20T03:03:15.500Z,3.30
2023-01-20T03:05:49.885Z,3.30
2023-01-20T03:08:18.944Z,3.20
2023-01-20T03:10:48.004Z,3.20
2023-01-20T03:13:37.287Z,3.20
2023-01-20T03:16:11.417Z,3.20
2023-01-20T03:18:38.841Z,3.20
2023-01-20T03:21:08.408Z,3.20
2023-01-20T03:23:37.790Z,3.20
2023-01-20T03:26:08.697Z,3.10
2023-01-20T03:28:35.722Z,3.10
2023-01-20T03:31:11.746Z,3.00
2023-01-20T03:33:39.441Z,3.10
2023-01-20T03:36:06.955Z,3.00
2023-01-20T03:38:33.937Z,3.00
2023-01-20T03:41:26.871Z,2.90
2023-01-20T03:44:12.481Z,3.00
2023-01-20T03:46:51.215Z,3.00
2023-01-20T03:49:52.135Z,3.10
2023-01-20T03:52:47.104Z,3.10
2023-01-20T03:55:38.451Z,3.10
2023-01-20T03:58:09.473Z,3.10
2023-01-20T04:00:48.723Z,3.10
2023-01-20T04:03:20.187Z,3.00
2023-01-20T04:05:48.097Z,3.00
2023-01-20T04:08:17.445Z,3.00
2023-01-20T04:10:48.307Z,3.00
2023-01-20T04:13:16.271Z,2.90
2023-01-20T04:15:46.591Z,3.00
2023-01-20T04:18:22.945Z,2.90
2023-01-20T04:20:55.303Z,2.90
2023-01-20T04:23:42.277Z,2.90
2023-01-20T04:26:09.163Z,2.90
2023-01-20T04:28:36.043Z,2.90
2023-01-20T04:31:02.983Z,2.90
2023-01-20T04:33:29.916Z,3.00
2023-01-20T04:35:56.812Z,2.90
2023-01-20T04:38:23.754Z,2.90
2023-01-20T04:40:50.635Z,2.90
2023-01-20T04:43:18.498Z,2.80
2023-01-20T04:45:45.400Z,2.80
2023-01-20T04:48:12.327Z,2.70
2023-01-20T04:50:40.650Z,2.70
2023-01-20T04:53:10.686Z,2.70
2023-01-20T04:55:37.609Z,2.70
2023-01-20T04:58:04.527Z,2.70
2023-01-20T05:00:31.487Z,2.70
2023-01-20T05:02:59.107Z,2.70
2023-01-20T05:05:26.030Z,2.70
2023-01-20T05:07:54.112Z,2.70
2023-01-20T05:10:21.548Z,2.70
2023-01-20T05:12:48.581Z,2.70
2023-01-20T05:15:15.780Z,2.70
2023-01-20T05:17:42.736Z,2.70
2023-01-20T05:20:10.321Z,2.70
2023-01-20T05:22:37.328Z,2.70
2023-01-20T05:25:04.546Z,2.70
2023-01-20T05:27:31.428Z,2.60
2023-01-20T05:29:58.292Z,2.60
2023-01-20T05:32:25.154Z,2.60
2023-01-20T05:34:52.150Z,2.50
2023-01-20T05:37:19.144Z,2.50
2023-01-20T05:39:46.098Z,2.50
2023-01-20T05:42:13.077Z,2.50
2023-01-20T05:44:39.998Z,2.50
2023-01-20T05:47:07.143Z,2.50
2023-01-20T05:49:34.336Z,2.50
2023-01-20T05:52:01.320Z,2.50
2023-01-20T05:54:28.233Z,2.50
2023-01-20T05:56:55.143Z,2.50
2023-01-20T05:59:23.934Z,2.50
2023-01-20T06:01:50.923Z,2.50
2023-01-20T06:04:17.949Z,2.50
2023-01-20T06:06:44.891Z,2.50
2023-01-20T06:09:11.900Z,2.60
2023-01-20T06:11:38.824Z,2.60
2023-01-20T06:14:06.310Z,2.70
2023-01-20T06:16:33.333Z,2.60
2023-01-20T06:19:00.371Z,2.60
2023-01-20T06:21:27.436Z,2.60
2023-01-20T06:23:54.581Z,2.60
2023-01-20T06:26:21.498Z,2.60
2023-01-20T06:28:48.458Z,2.60
2023-01-20T06:31:17.166Z,2.60
2023-01-20T06:33:44.281Z,2.60
2023-01-20T06:36:14.066Z,2.60
2023-01-20T06:38:41.082Z,2.60
2023-01-20T06:41:15.433Z,2.70
2023-01-20T06:43:42.442Z,2.70
2023-01-20T06:46:14.706Z,2.70
2023-01-20T06:48:42.982Z,2.70
2023-01-20T06:51:18.968Z,2.70
2023-01-20T06:53:46.229Z,2.70
2023-01-20T06:56:14.961Z,2.70
2023-01-20T06:58:42.469Z,2.60
2023-01-20T07:01:13.812Z,2.60
2023-01-20T07:03:45.961Z,2.60
2023-01-20T07:06:27.085Z,2.60
2023-01-20T07:08:54.355Z,2.60
2023-01-20T07:11:21.460Z,2.60
2023-01-20T07:13:48.334Z,2.60
2023-01-20T07:16:16.169Z,2.60
2023-01-20T07:18:47.199Z,2.60
2023-01-20T07:21:14.246Z,2.60
2023-01-20T07:23:41.258Z,2.60
2023-01-20T07:26:10.911Z,2.60
2023-01-20T07:28:38.433Z,2.50
2023-01-20T07:31:10.495Z,2.50
2023-01-20T07:33:38.465Z,2.50
2023-01-20T07:36:08.880Z,2.50
2023-01-20T07:38:36.098Z,2.50
2023-01-20T07:41:05.715Z,2.40
2023-01-20T07:43:33.444Z,2.40
2023-01-20T07:46:02.725Z,2.40
2023-01-20T07:48:34.087Z,2.50
2023-01-20T07:51:05.835Z,2.50
2023-01-20T07:53:38.144Z,2.40
2023-01-20T07:56:10.981Z,2.40
2023-01-20T07:58:38.561Z,2.40
2023-01-20T08:01:14.817Z,2.40
2023-01-20T08:03:42.492Z,2.40
2023-01-20T08:06:12.001Z,2.40
2023-01-20T08:08:39.245Z,2.40
2023-01-20T08:11:07.792Z,2.40
2023-01-20T08:13:35.265Z,2.40
2023-01-20T08:16:04.058Z,2.40
2023-01-20T08:18:32.481Z,2.40
2023-01-20T08:21:00.050Z,2.40
2023-01-20T08:23:27.103Z,2.50
2023-01-20T08:26:06.122Z,2.50
2023-01-20T08:28:37.744Z,2.50
2023-01-20T08:31:10.414Z,2.50
2023-01-20T08:33:38.250Z,2.50
2023-01-20T08:36:08.036Z,2.50
2023-01-20T08:38:35.671Z,2.50
2023-01-20T08:41:06.461Z,2.40
2023-01-20T08:43:33.445Z,2.40
2023-01-20T08:46:07.528Z,2.40
2023-01-20T08:48:35.868Z,2.40
2023-01-20T08:51:14.076Z,2.40
2023-01-20T08:53:42.011Z,2.40
2023-01-20T08:56:09.690Z,2.30
2023-01-20T08:58:37.461Z,2.30
2023-01-20T09:01:17.170Z,2.30
2023-01-20T09:03:59.228Z,2.30
2023-01-20T09:06:32.256Z,2.30
2023-01-20T09:08:59.231Z,2.30
2023-01-20T09:11:26.417Z,2.30
2023-01-20T09:13:54.543Z,2.30
2023-01-20T09:16:21.488Z,2.20
2023-01-20T09:18:48.462Z,2.20
2023-01-20T09:21:15.391Z,2.20
2023-01-20T09:23:43.455Z,2.30
2023-01-20T09:26:10.578Z,2.30
2023-01-20T09:28:37.542Z,2.30
2023-01-20T09:31:09.684Z,2.30
2023-01-20T09:33:39.317Z,2.30
2023-01-20T09:36:08.782Z,2.30
2023-01-20T09:38:54.205Z,2.30
2023-01-20T09:41:51.527Z,2.30
2023-01-20T09:44:53.463Z,2.40
2023-01-20T09:47:23.314Z,2.30
2023-01-20T09:50:14.881Z,2.50
2023-01-20T09:53:01.540Z,2.50
2023-01-20T09:55:28.302Z,2.50
2023-01-20T09:58:08.320Z,2.60
2023-01-20T10:00:36.862Z,2.60
2023-01-20T10:03:36.998Z,2.60
2023-01-20T10:06:33.509Z,2.60
2023-01-20T10:09:09.687Z,2.70
2023-01-20T10:11:41.263Z,2.70
2023-01-20T10:14:12.804Z,2.70
2023-01-20T10:17:12.589Z,2.60
2023-01-20T10:19:42.993Z,2.70
2023-01-20T10:22:31.428Z,2.70
2023-01-20T10:25:14.701Z,2.70
2023-01-20T10:27:54.618Z,2.70
2023-01-20T10:30:26.366Z,2.70
2023-01-20T10:33:09.768Z,2.70
2023-01-20T10:35:44.427Z,2.80
2023-01-20T10:38:41.024Z,2.80
2023-01-20T10:41:20.587Z,2.80
2023-01-20T10:43:50.625Z,2.80
2023-01-20T10:46:40.884Z,2.80
2023-01-20T10:49:34.607Z,2.80
2023-01-20T10:52:19.741Z,2.90
2023-01-20T10:55:03.640Z,2.90
2023-01-20T10:57:30.705Z,3.00
2023-01-20T11:00:01.875Z,3.00
2023-01-20T11:02:35.187Z,3.00
2023-01-20T11:05:26.028Z,3.10
2023-01-20T11:07:54.586Z,3.20
2023-01-20T11:10:25.541Z,3.10
2023-01-20T11:12:59.698Z,3.20
2023-01-20T11:15:35.985Z,3.20
2023-01-20T11:18:15.019Z,3.30
2023-01-20T11:20:55.256Z,3.30
2023-01-20T11:23:49.368Z,3.40
2023-01-20T11:26:28.017Z,3.50
2023-01-20T11:29:03.155Z,3.70
2023-01-20T11:31:49.908Z,4.30
2023-01-20T11:34:34.965Z,5.00
2023-01-20T11:37:04.838Z,5.40
2023-01-20T11:39:33.951Z,5.70
2023-01-20T11:42:25.285Z,6.10
2023-01-20T11:45:08.522Z,6.30
2023-01-20T11:47:44.935Z,6.30
2023-01-20T11:50:50.102Z,6.20
2023-01-20T11:53:28.565Z,6.30
2023-01-20T11:56:01.583Z,6.10
2023-01-20T11:58:33.874Z,6.20
2023-01-20T12:01:08.359Z,6.30
2023-01-20T12:03:37.989Z,6.30
2023-01-20T12:06:26.545Z,6.20
2023-01-20T12:09:16.603Z,5.90
2023-01-20T12:11:51.027Z,5.70
2023-01-20T12:14:41.317Z,5.40
2023-01-20T12:17:21.595Z,5.30
2023-01-20T12:19:59.785Z,5.30
2023-01-20T12:23:07.177Z,5.20
2023-01-20T12:25:46.820Z,5.10
2023-01-20T12:28:37.194Z,5.00
2023-01-20T12:31:10.939Z,5.00
2023-01-20T12:33:45.564Z,4.90
2023-01-20T12:36:27.877Z,4.90
2023-01-20T12:39:18.071Z,4.90
2023-01-20T12:42:09.531Z,4.90
2023-01-20T12:45:02.851Z,4.90
2023-01-20T12:47:58.961Z,4.90
2023-01-20T12:50:54.021Z,4.90
2023-01-20T12:53:23.777Z,4.90
2023-01-20T12:56:18.474Z,4.90
2023-01-20T12:58:53.816Z,5.00
2023-01-20T13:01:43.780Z,5.10
2023-01-20T13:04:10.692Z,5.10
2023-01-20T13:07:02.370Z,5.10
2023-01-20T13:09:38.284Z,5.10
2023-01-20T13:12:34.933Z,5.20
2023-01-20T13:15:26.528Z,5.20
2023-01-20T13:18:11.269Z,5.20
2023-01-20T13:20:41.144Z,5.30
2023-01-20T13:23:13.040Z,5.30
2023-01-20T13:25:41.363Z,5.30
2023-01-20T13:28:19.841Z,5.20
2023-01-20T13:30:54.001Z,5.20
2023-01-20T13:33:38.341Z,5.20
2023-01-20T13:36:21.204Z,5.20
2023-01-20T13:38:50.729Z,5.20
2023-01-20T13:41:50.200Z,5.20
2023-01-20T13:44:41.480Z,5.20
2023-01-20T13:47:10.887Z,5.20
2023-01-20T13:49:50.210Z,5.20
2023-01-20T13:52:52.379Z,5.20
2023-01-20T13:55:31.462Z,5.20
2023-01-20T13:57:58.386Z,5.10
2023-01-20T14:00:25.261Z,5.10
2023-01-20T14:02:53.214Z,5.10
2023-01-20T14:05:27.484Z,5.10
2023-01-20T14:07:55.222Z,5.10
2023-01-20T14:10:22.194Z,5.00
2023-01-20T14:12:49.077Z,5.10
2023-01-20T14:15:42.363Z,5.10
2023-01-20T14:18:15.791Z,5.10
2023-01-20T14:20:43.141Z,5.10
2023-01-20T14:23:25.154Z,5.10
2023-01-20T14:26:07.190Z,5.10
2023-01-20T14:28:35.572Z,5.20
2023-01-20T14:31:25.562Z,5.20
2023-01-20T14:34:19.397Z,5.20
2023-01-20T14:36:46.969Z,5.10
2023-01-20T14:39:25.170Z,5.10
2023-01-20T14:41:57.242Z,5.20
2023-01-20T14:44:29.653Z,5.20
2023-01-20T14:46:59.399Z,5.20
2023-01-20T14:49:35.341Z,5.20
2023-01-20T14:52:04.237Z,5.20
2023-01-20T14:54:45.254Z,5.10
2023-01-20T14:57:23.772Z,5.20
2023-01-20T15:00:11.846Z,5.10
2023-01-20T15:02:40.688Z,5.10
2023-01-20T15:05:31.882Z,5.10
2023-01-20T15:08:25.459Z,5.00
2023-01-20T15:11:16.420Z,5.00
2023-01-20T15:14:08.344Z,4.90
2023-01-20T15:16:46.691Z,4.80
2023-01-20T15:19:13.795Z,4.80
2023-01-20T15:21:56.397Z,4.80
2023-01-20T15:24:37.361Z,4.70
2023-01-20T15:27:27.488Z,4.70
2023-01-20T15:30:13.800Z,4.70
2023-01-20T15:32:40.820Z,4.60
2023-01-20T15:35:11.596Z,4.60
2023-01-20T15:37:38.827Z,4.50
2023-01-20T15:40:06.423Z,4.50
2023-01-20T15:42:33.371Z,4.40
2023-01-20T15:45:00.289Z,4.30
2023-01-20T15:47:31.075Z,4.10
2023-01-20T15:49:58.691Z,3.90
2023-01-20T15:52:25.864Z,3.70
2023-01-20T15:54:52.772Z,3.50
2023-01-20T15:57:19.697Z,3.30
2023-01-20T15:59:47.668Z,3.30
2023-01-20T16:02:23.348Z,3.30
2023-01-20T16:04:50.793Z,3.20
2023-01-20T16:07:20.081Z,3.20
2023-01-20T16:09:47.418Z,3.10
2023-01-20T16:12:16.766Z,3.20
2023-01-20T16:14:45.152Z,3.20
2023-01-20T16:17:21.042Z,3.10
2023-01-20T16:19:49.532Z,3.00
2023-01-20T16:22:16.611Z,2.90
2023-01-20T16:24:43.982Z,2.80
2023-01-20T16:27:19.841Z,2.70
2023-01-20T16:29:47.514Z,2.50
2023-01-20T16:32:17.747Z,2.50
2023-01-20T16:34:46.670Z,2.60
2023-01-20T16:37:14.730Z,2.50
2023-01-20T16:39:41.933Z,2.40
2023-01-20T16:42:13.666Z,2.30
2023-01-20T17:36:35.852Z,1.30
2023-01-20T17:39:03.678Z,1.30
2023-01-20T17:41:30.792Z,1.30
2023-01-20T17:43:57.739Z,1.20
2023-01-20T17:46:29.578Z,1.20
2023-01-20T17:48:57.916Z,1.20
2023-01-20T17:51:27.073Z,1.10
2023-01-20T17:53:54.370Z,1.10
2023-01-20T17:56:22.509Z,1.00
2023-01-20T17:58:49.705Z,1.10
2023-01-20T18:01:27.307Z,1.00
2023-01-20T18:03:56.598Z,0.90
2023-01-20T18:06:25.164Z,0.90
2023-01-20T18:08:58.047Z,0.90
2023-01-20T18:11:27.120Z,0.80
2023-01-20T18:13:56.191Z,0.80
2023-01-20T18:16:26.662Z,0.80
2023-01-20T18:18:58.977Z,0.70
2023-01-20T18:21:29.883Z,0.70
2023-01-20T18:23:58.238Z,0.60
2023-01-20T18:26:27.054Z,0.60
2023-01-20T18:28:55.221Z,0.60
2023-01-20T18:31:23.904Z,0.50
2023-01-20T18:33:59.306Z,0.50
2023-01-20T18:36:29.378Z,0.60
2023-01-20T18:39:04.292Z,0.50
2023-01-20T18:41:34.048Z,0.40
2023-01-20T18:44:02.203Z,0.40
2023-01-20T18:46:29.413Z,0.50
2023-01-20T18:48:56.449Z,0.50
2023-01-20T18:51:26.554Z,0.50
2023-01-20T18:53:59.612Z,0.50
2023-01-20T18:56:28.569Z,0.50
2023-01-20T18:58:56.421Z,0.50
2023-01-20T19:01:33.874Z,0.40
2023-01-20T19:04:03.324Z,0.40
2023-01-20T19:06:38.030Z,0.40
2023-01-20T19:09:06.613Z,0.30
2023-01-20T19:11:36.439Z,0.20
2023-01-20T19:14:03.821Z,0.30
2023-01-20T19:16:33.005Z,0.30
2023-01-20T19:19:02.586Z,0.30
2023-01-20T19:24:06.246Z,0.30
2023-01-20T19:26:35.953Z,0.30
2023-01-20T19:32:31.847Z,0.20
2023-01-20T19:51:51.763Z,-0.20
2023-01-20T20:13:08.695Z,0.80
2023-01-20T20:48:35.841Z,0.90
2023-01-20T20:51:53.767Z,0.90
2023-01-20T21:03:58.394Z,0.80
2023-01-20T23:19:21.195Z,2.50
